Time;durP1;ratioP1;P1;durP2;ratioP2;P2;SDS_P1;SDS_P2;PMS_P1;PMS_P2;Temp;Humidity;BMP_temperature;BMP_pressure;BME280_temperature;BME280_humidity;BME280_pressure;Samples;Min_cycle;Max_cycle;Signal;HPM_P1;HPM_P2
2021/04/22 00:01:53;;;;;;;34.10;24.93;;;9.60;99.90;;;;;;472866;251;28455;-72
2021/04/22 00:03:54;;;;;;;31.13;20.50;;;9.60;99.90;;;;;;472857;247;28133;-72
2021/04/22 00:05:55;;;;;;;29.33;21.93;;;9.50;99.90;;;;;;472853;250;28400;-71
2021/04/22 00:07:57;;;;;;;33.10;24.13;;;9.50;99.90;;;;;;472786;251;27897;-71
2021/04/22 00:09:58;;;;;;;28.60;20.57;;;9.50;99.90;;;;;;472788;246;27939;-71
2021/04/22 00:11:59;;;;;;;37.80;24.60;;;9.40;99.90;;;;;;472787;250;28002;-71
2021/04/22 00:14:02;;;;;;;33.97;23.70;;;9.40;99.90;;;;;;472808;250;27594;-71
2021/04/22 00:16:03;;;;;;;27.87;21.17;;;9.40;99.90;;;;;;472793;250;27926;-72
2021/04/22 00:18:04;;;;;;;32.70;23.20;;;9.30;99.90;;;;;;472770;247;27993;-72
2021/04/22 00:20:05;;;;;;;32.07;23.90;;;9.30;99.90;;;;;;472788;246;28020;-73
2021/04/22 00:22:07;;;;;;;28.50;22.10;;;9.30;99.90;;;;;;472824;250;27854;-71
2021/04/22 00:24:08;;;;;;;34.83;24.27;;;9.20;99.90;;;;;;472787;247;27758;-71
2021/04/22 00:26:09;;;;;;;28.93;21.87;;;9.20;99.90;;;;;;472801;251;27698;-71
2021/04/22 00:28:10;;;;;;;35.57;25.50;;;9.20;99.90;;;;;;472818;246;28265;-71
2021/04/22 00:30:12;;;;;;;34.20;24.43;;;9.10;99.90;;;;;;472788;250;28538;-71
2021/04/22 00:32:15;;;;;;;34.43;24.63;;;9.10;99.90;;;;;;472890;250;27998;-71
2021/04/22 00:34:14;;;;;;;34.10;24.20;;;9.10;99.90;;;;;;472597;250;28344;-72
2021/04/22 00:36:16;;;;;;;33.43;24.93;;;9.00;99.90;;;;;;471803;251;28233;-71
2021/04/22 00:38:17;;;;;;;29.37;21.77;;;9.00;99.90;;;;;;471737;252;28026;-71
2021/04/22 00:40:18;;;;;;;35.80;25.57;;;9.00;99.90;;;;;;471711;251;27971;-73
2021/04/22 00:42:19;;;;;;;36.30;24.83;;;8.90;99.90;;;;;;471769;251;28032;-71
2021/04/22 00:44:20;;;;;;;39.97;25.43;;;8.90;99.90;;;;;;471755;252;28135;-72
2021/04/22 00:46:22;;;;;;;33.43;23.67;;;8.90;99.90;;;;;;471785;248;27479;-71
2021/04/22 00:48:23;;;;;;;30.80;22.03;;;8.90;99.90;;;;;;471742;247;27843;-72
2021/04/22 00:50:24;;;;;;;31.87;23.53;;;8.80;99.90;;;;;;471761;252;27931;-73
2021/04/22 00:52:25;;;;;;;26.93;21.33;;;8.80;99.90;;;;;;471763;251;27793;-71
2021/04/22 00:54:27;;;;;;;40.33;26.10;;;8.70;99.90;;;;;;471737;247;28305;-71
2021/04/22 00:56:28;;;;;;;35.63;25.23;;;8.70;99.90;;;;;;471759;251;28120;-71
2021/04/22 00:58:29;;;;;;;33.77;23.27;;;8.70;99.90;;;;;;471748;247;27448;-71
2021/04/22 01:00:31;;;;;;;39.43;26.40;;;8.70;99.90;;;;;;471754;251;27444;-73
2021/04/22 01:02:32;;;;;;;34.50;25.50;;;8.70;99.90;;;;;;471764;251;27735;-71
2021/04/22 01:04:33;;;;;;;40.67;25.80;;;8.60;99.90;;;;;;471795;251;27869;-72
2021/04/22 01:06:34;;;;;;;32.23;24.07;;;8.60;99.90;;;;;;471817;252;27764;-71
2021/04/22 01:08:36;;;;;;;25.77;19.97;;;8.60;99.90;;;;;;471755;252;27661;-71
2021/04/22 01:10:37;;;;;;;37.40;25.30;;;8.60;99.90;;;;;;471745;248;28586;-71
2021/04/22 01:12:38;;;;;;;35.10;24.70;;;8.50;99.90;;;;;;471772;252;28426;-71
2021/04/22 01:14:42;;;;;;;35.57;25.07;;;8.50;99.90;;;;;;471768;251;28483;-71
2021/04/22 01:16:41;;;;;;;46.60;25.40;;;8.40;99.90;;;;;;471815;249;27883;-71
2021/04/22 01:18:42;;;;;;;34.93;26.20;;;8.40;99.90;;;;;;471750;252;27880;-71
2021/04/22 01:20:43;;;;;;;32.03;24.53;;;8.40;99.90;;;;;;471750;252;28114;-72
2021/04/22 01:22:44;;;;;;;34.53;25.23;;;8.40;99.90;;;;;;471783;251;27531;-71
2021/04/22 01:24:46;;;;;;;33.70;25.20;;;8.40;99.90;;;;;;471769;251;27559;-71
2021/04/22 01:26:47;;;;;;;32.60;23.83;;;8.30;99.90;;;;;;471778;252;27879;-71
2021/04/22 01:28:48;;;;;;;32.93;22.50;;;8.30;99.90;;;;;;471790;252;28402;-71
2021/04/22 01:30:49;;;;;;;34.37;25.97;;;8.30;99.90;;;;;;471773;251;28371;-72
2021/04/22 01:32:51;;;;;;;38.50;26.77;;;8.30;99.90;;;;;;471788;247;28544;-71
2021/04/22 01:34:52;;;;;;;36.60;26.03;;;8.20;99.90;;;;;;471757;251;27802;-71
2021/04/22 01:36:53;;;;;;;31.60;22.67;;;8.20;99.90;;;;;;471778;251;27986;-71
2021/04/22 01:38:54;;;;;;;34.97;25.90;;;8.10;99.90;;;;;;471744;252;27808;-71
2021/04/22 01:40:56;;;;;;;31.30;25.10;;;8.10;99.90;;;;;;471720;252;28356;-71
2021/04/22 01:42:57;;;;;;;31.10;21.97;;;8.10;99.90;;;;;;471767;248;27852;-71
2021/04/22 01:44:58;;;;;;;28.40;20.50;;;8.10;99.90;;;;;;471767;252;27452;-71
2021/04/22 01:46:59;;;;;;;39.40;25.93;;;8.10;99.90;;;;;;471749;251;28337;-71
2021/04/22 01:49:01;;;;;;;29.87;22.37;;;8.00;99.90;;;;;;471744;251;28469;-71
2021/04/22 01:51:03;;;;;;;35.57;24.80;;;8.00;99.90;;;;;;471760;251;28435;-72
2021/04/22 01:53:03;;;;;;;35.80;25.40;;;8.00;99.90;;;;;;471780;248;27889;-71
2021/04/22 01:55:04;;;;;;;33.63;24.00;;;7.90;99.90;;;;;;471787;252;27993;-71
2021/04/22 01:57:06;;;;;;;36.87;25.70;;;7.90;99.90;;;;;;471778;251;28009;-71
2021/04/22 01:59:07;;;;;;;33.67;22.50;;;7.90;99.90;;;;;;471768;251;27906;-71
2021/04/22 02:01:08;;;;;;;34.23;24.03;;;7.90;99.90;;;;;;471766;252;27512;-72
2021/04/22 02:03:09;;;;;;;32.77;23.80;;;7.80;99.90;;;;;;471786;251;28038;-71
2021/04/22 02:05:11;;;;;;;30.07;22.10;;;7.80;99.90;;;;;;471807;251;28395;-71
2021/04/22 02:07:12;;;;;;;21.13;16.97;;;7.80;99.90;;;;;;471803;247;28219;-71
2021/04/22 02:09:13;;;;;;;22.80;17.67;;;7.90;99.90;;;;;;471778;252;28487;-71
2021/04/22 02:11:14;;;;;;;30.60;22.90;;;7.90;99.90;;;;;;471770;247;28045;-71
2021/04/22 02:13:16;;;;;;;33.10;23.63;;;7.90;99.90;;;;;;471780;247;27848;-71
2021/04/22 02:15:17;;;;;;;28.50;18.40;;;7.70;99.90;;;;;;471797;252;28027;-71
2021/04/22 02:17:18;;;;;;;22.40;19.00;;;7.80;99.90;;;;;;471795;248;27957;-71
2021/04/22 02:19:19;;;;;;;38.03;26.40;;;7.80;99.90;;;;;;471778;251;27963;-71
2021/04/22 02:21:21;;;;;;;27.63;19.27;;;7.70;99.90;;;;;;471795;251;27400;-71
2021/04/22 02:23:22;;;;;;;28.70;21.53;;;7.70;99.90;;;;;;471732;247;28336;-71
2021/04/22 02:25:23;;;;;;;27.20;18.17;;;7.60;99.90;;;;;;471811;251;28292;-72
2021/04/22 02:27:24;;;;;;;29.87;20.23;;;7.70;99.90;;;;;;471784;247;28559;-71
2021/04/22 02:29:26;;;;;;;26.23;19.70;;;7.70;99.90;;;;;;471756;248;27963;-70
2021/04/22 02:31:27;;;;;;;24.57;18.27;;;7.70;99.90;;;;;;471361;252;28013;-71
2021/04/22 02:33:28;;;;;;;26.07;20.30;;;7.60;99.90;;;;;;471750;248;28015;-71
2021/04/22 02:35:29;;;;;;;30.73;21.27;;;7.60;99.90;;;;;;471766;252;27455;-71
2021/04/22 02:37:31;;;;;;;23.13;17.80;;;7.60;99.90;;;;;;471799;251;27775;-71
2021/04/22 02:39:32;;;;;;;29.37;18.87;;;7.60;99.90;;;;;;471755;252;27791;-71
2021/04/22 02:41:33;;;;;;;31.63;23.07;;;7.50;99.90;;;;;;471786;252;28344;-71
2021/04/22 02:43:34;;;;;;;29.30;22.37;;;7.50;99.90;;;;;;471782;251;28371;-71
2021/04/22 02:45:36;;;;;;;34.80;23.97;;;7.40;99.90;;;;;;471812;252;27938;-72
2021/04/22 02:47:37;;;;;;;37.00;23.50;;;7.40;99.90;;;;;;471789;251;27992;-71
2021/04/22 02:49:38;;;;;;;29.60;20.00;;;7.40;99.90;;;;;;471771;247;28039;-73
2021/04/22 02:51:40;;;;;;;32.93;23.13;;;7.40;99.90;;;;;;471792;252;27891;-71
2021/04/22 02:53:41;;;;;;;30.40;23.33;;;7.40;99.90;;;;;;471758;252;27924;-71
2021/04/22 02:55:43;;;;;;;28.63;20.70;;;7.30;99.90;;;;;;471751;252;27991;-71
2021/04/22 02:57:43;;;;;;;35.70;24.27;;;7.20;99.90;;;;;;471740;252;28008;-71
2021/04/22 02:59:45;;;;;;;33.60;26.33;;;7.20;99.90;;;;;;471737;252;28407;-71
2021/04/22 03:01:46;;;;;;;40.60;25.20;;;7.20;99.90;;;;;;471762;252;28345;-71
2021/04/22 03:03:47;;;;;;;32.13;23.50;;;7.20;99.90;;;;;;471743;252;27855;-71
2021/04/22 03:05:48;;;;;;;36.40;24.80;;;7.20;99.90;;;;;;471708;248;27555;-72
2021/04/22 03:07:50;;;;;;;37.40;25.07;;;7.20;99.90;;;;;;471725;251;28047;-71
2021/04/22 03:09:51;;;;;;;40.53;24.10;;;7.10;99.90;;;;;;471744;251;28022;-71
2021/04/22 03:11:52;;;;;;;33.83;22.70;;;7.10;99.90;;;;;;471745;252;28458;-71
2021/04/22 03:13:53;;;;;;;32.70;22.10;;;7.00;99.90;;;;;;471768;252;27491;-71
2021/04/22 03:15:55;;;;;;;31.90;21.57;;;7.00;99.90;;;;;;471794;247;27937;-70
2021/04/22 03:17:56;;;;;;;27.93;20.40;;;7.00;99.90;;;;;;471804;248;28238;-71
2021/04/22 03:19:57;;;;;;;39.87;22.90;;;7.00;99.90;;;;;;471778;252;28148;-71
2021/04/22 03:21:58;;;;;;;30.20;20.10;;;6.90;99.90;;;;;;471712;248;28357;-71
2021/04/22 03:24:00;;;;;;;27.53;18.40;;;6.90;99.90;;;;;;471739;251;27566;-71
2021/04/22 03:26:01;;;;;;;30.43;19.90;;;6.90;99.90;;;;;;471829;252;28032;-72
2021/04/22 03:28:02;;;;;;;28.73;18.30;;;7.00;99.90;;;;;;471793;248;28055;-71
2021/04/22 03:30:04;;;;;;;31.63;18.93;;;6.90;99.90;;;;;;471796;251;27961;-71
2021/04/22 03:32:05;;;;;;;31.20;18.03;;;6.90;99.90;;;;;;471761;251;27863;-71
2021/04/22 03:34:06;;;;;;;32.23;19.20;;;6.80;99.90;;;;;;471786;252;27908;-71
2021/04/22 03:36:07;;;;;;;30.90;17.93;;;6.80;99.90;;;;;;471767;251;28305;-71
2021/04/22 03:38:08;;;;;;;27.50;18.90;;;6.80;99.90;;;;;;471773;251;28406;-71
2021/04/22 03:40:10;;;;;;;23.57;16.67;;;6.70;99.90;;;;;;471708;251;28507;-71
2021/04/22 03:42:11;;;;;;;28.93;19.50;;;6.80;99.90;;;;;;477809;245;27411;-71
2021/04/22 03:44:12;;;;;;;27.00;18.73;;;6.70;99.90;;;;;;479881;247;27406;-71
2021/04/22 03:46:13;;;;;;;30.00;19.17;;;6.70;99.90;;;;;;479938;247;28077;-71
2021/04/22 03:48:15;;;;;;;24.07;16.60;;;6.60;99.90;;;;;;479949;247;28222;-71
2021/04/22 03:50:16;;;;;;;27.00;17.87;;;6.60;99.90;;;;;;479957;247;27974;-71
2021/04/22 03:52:19;;;;;;;31.80;18.17;;;6.60;99.90;;;;;;479957;247;28693;-70
2021/04/22 03:54:18;;;;;;;24.90;16.10;;;6.60;99.90;;;;;;479957;247;28278;-71
2021/04/22 03:56:20;;;;;;;27.43;18.57;;;6.50;99.90;;;;;;479951;247;28394;-71
2021/04/22 03:58:21;;;;;;;21.60;16.17;;;6.50;99.90;;;;;;479946;247;27718;-71
2021/04/22 04:00:22;;;;;;;22.83;15.03;;;6.50;99.90;;;;;;479927;247;27884;-71
2021/04/22 04:02:23;;;;;;;21.60;14.73;;;6.50;99.90;;;;;;479958;247;27754;-71
2021/04/22 04:04:25;;;;;;;31.92;16.02;;;6.50;99.90;;;;;;479931;247;28535;-71
2021/04/22 04:06:26;;;;;;;27.43;16.40;;;6.50;99.90;;;;;;479853;247;27420;-71
2021/04/22 04:08:27;;;;;;;25.43;15.47;;;6.40;99.90;;;;;;479900;247;27695;-72
2021/04/22 04:10:28;;;;;;;21.52;13.62;;;6.30;99.90;;;;;;479953;247;29190;-71
2021/04/22 04:12:30;;;;;;;24.87;13.40;;;6.40;99.90;;;;;;479939;247;27363;-71
2021/04/22 04:14:32;;;;;;;18.92;12.93;;;6.40;99.90;;;;;;479927;247;27477;-72
2021/04/22 04:16:32;;;;;;;29.37;14.30;;;6.40;99.90;;;;;;479838;247;27471;-71
2021/04/22 04:18:34;;;;;;;21.00;12.60;;;6.20;99.90;;;;;;479892;247;27739;-71
2021/04/22 04:20:35;;;;;;;23.30;14.15;;;6.20;99.90;;;;;;479866;247;27857;-70
2021/04/22 04:22:36;;;;;;;26.50;14.00;;;6.20;99.90;;;;;;479963;247;27866;-71
2021/04/22 04:24:37;;;;;;;21.00;13.32;;;6.20;99.90;;;;;;479918;247;28732;-71
2021/04/22 04:26:39;;;;;;;17.50;11.75;;;6.10;99.90;;;;;;479953;247;27391;-71
2021/04/22 04:28:40;;;;;;;27.75;13.85;;;6.20;99.90;;;;;;479929;247;27371;-71
2021/04/22 04:30:41;;;;;;;19.42;11.95;;;6.20;99.90;;;;;;479957;247;27415;-71
2021/04/22 04:32:42;;;;;;;22.75;12.48;;;6.10;99.90;;;;;;479956;247;27905;-71
2021/04/22 04:34:44;;;;;;;23.93;11.77;;;6.10;99.90;;;;;;479988;247;27508;-71
2021/04/22 04:36:46;;;;;;;23.40;12.30;;;6.10;99.90;;;;;;479902;247;28738;-72
2021/04/22 04:38:46;;;;;;;17.77;11.93;;;6.00;99.90;;;;;;479908;247;27442;-71
2021/04/22 04:40:47;;;;;;;27.83;13.20;;;6.00;99.90;;;;;;479914;247;27483;-71
2021/04/22 04:42:49;;;;;;;27.43;13.40;;;6.00;99.90;;;;;;479905;247;28943;-71
2021/04/22 04:44:50;;;;;;;18.60;11.93;;;6.00;99.90;;;;;;479908;247;28446;-71
2021/04/22 04:46:51;;;;;;;19.30;12.30;;;5.90;99.90;;;;;;479893;247;28532;-71
2021/04/22 04:48:52;;;;;;;27.58;13.13;;;5.90;99.90;;;;;;479890;247;27379;-71
2021/04/22 04:50:54;;;;;;;25.33;12.50;;;5.90;99.90;;;;;;479880;247;27404;-71
2021/04/22 04:52:55;;;;;;;38.33;11.77;;;5.90;99.90;;;;;;479876;247;28523;-71
2021/04/22 04:54:56;;;;;;;19.87;11.27;;;5.80;99.90;;;;;;479892;247;27859;-71
2021/04/22 04:56:58;;;;;;;16.07;10.03;;;5.90;99.90;;;;;;479935;247;30174;-71
2021/04/22 04:58:59;;;;;;;19.65;10.30;;;5.90;99.90;;;;;;479878;247;27598;-72
2021/04/22 05:01:00;;;;;;;20.65;10.35;;;6.00;99.90;;;;;;479862;247;27427;-71
2021/04/22 05:03:01;;;;;;;19.90;10.57;;;5.90;99.90;;;;;;479889;247;27410;-71
2021/04/22 05:05:03;;;;;;;21.10;11.80;;;5.90;99.90;;;;;;479888;247;28815;-71
2021/04/22 05:07:04;;;;;;;19.80;10.82;;;5.90;99.90;;;;;;479973;247;27880;-70
2021/04/22 05:09:05;;;;;;;20.33;10.40;;;5.90;99.90;;;;;;479912;247;27837;-71
2021/04/22 05:11:06;;;;;;;21.07;12.50;;;6.00;99.90;;;;;;479914;247;27471;-71
2021/04/22 05:13:08;;;;;;;23.73;11.75;;;5.90;99.90;;;;;;479908;247;28308;-71
2021/04/22 05:15:09;;;;;;;19.13;10.83;;;5.90;99.90;;;;;;479983;247;27475;-71
2021/04/22 05:17:11;;;;;;;17.80;10.63;;;5.90;99.90;;;;;;479886;247;29610;-71
2021/04/22 05:19:12;;;;;;;21.60;9.98;;;5.90;99.90;;;;;;479888;247;28848;-72
2021/04/22 05:21:14;;;;;;;20.02;10.68;;;6.00;99.90;;;;;;479910;247;27374;-71
2021/04/22 05:23:15;;;;;;;20.00;10.90;;;6.00;99.90;;;;;;479939;247;27411;-72
2021/04/22 05:25:16;;;;;;;16.00;9.90;;;6.00;99.90;;;;;;479916;247;27925;-71
2021/04/22 05:27:17;;;;;;;22.70;10.63;;;5.90;99.90;;;;;;479940;247;27955;-72
2021/04/22 05:29:20;;;;;;;27.50;10.98;;;5.80;99.90;;;;;;479916;247;28716;-71
2021/04/22 05:31:21;;;;;;;17.30;10.00;;;5.90;99.90;;;;;;479900;247;27515;-71
2021/04/22 05:33:22;;;;;;;19.83;12.03;;;5.90;99.90;;;;;;479908;247;27497;-71
2021/04/22 05:35:23;;;;;;;27.70;12.70;;;5.90;99.90;;;;;;479879;247;28211;-71
2021/04/22 05:37:25;;;;;;;18.33;11.13;;;5.90;99.90;;;;;;479883;247;29091;-71
2021/04/22 05:39:26;;;;;;;21.60;11.50;;;6.00;99.90;;;;;;479878;247;28403;-71
2021/04/22 05:41:27;;;;;;;22.27;9.90;;;6.00;99.90;;;;;;479859;247;27647;-72
2021/04/22 05:43:28;;;;;;;18.90;9.37;;;5.80;99.90;;;;;;479871;247;28592;-71
2021/04/22 05:45:30;;;;;;;19.98;9.00;;;5.80;99.90;;;;;;479869;247;28712;-71
2021/04/22 05:47:31;;;;;;;25.15;10.07;;;5.70;99.90;;;;;;479953;246;27379;-71
2021/04/22 05:49:32;;;;;;;22.50;9.83;;;5.70;99.90;;;;;;479913;247;27411;-71
2021/04/22 05:51:35;;;;;;;20.63;9.90;;;5.70;99.90;;;;;;479942;247;27863;-72
2021/04/22 05:53:35;;;;;;;16.93;8.90;;;5.70;99.90;;;;;;479868;247;28657;-71
2021/04/22 05:55:36;;;;;;;23.55;9.35;;;5.70;99.90;;;;;;479871;247;28808;-72
2021/04/22 05:57:37;;;;;;;17.50;9.43;;;5.50;99.90;;;;;;479728;247;27363;-71
2021/04/22 05:59:39;;;;;;;22.17;8.82;;;5.50;99.90;;;;;;479871;247;27486;-71
2021/04/22 06:01:40;;;;;;;13.20;7.85;;;5.60;99.90;;;;;;479958;247;27518;-71
2021/04/22 06:03:41;;;;;;;15.43;7.80;;;5.70;99.90;;;;;;479959;247;27380;-71
2021/04/22 06:05:42;;;;;;;19.63;9.13;;;5.80;99.90;;;;;;479963;247;29323;-71
2021/04/22 06:07:44;;;;;;;14.73;8.33;;;5.50;99.90;;;;;;479928;246;28278;-72
2021/04/22 06:09:45;;;;;;;15.18;7.70;;;5.50;99.90;;;;;;479876;247;28630;-71
2021/04/22 06:11:46;;;;;;;21.20;9.50;;;5.50;99.90;;;;;;479919;247;27408;-72
2021/04/22 06:13:47;;;;;;;13.75;8.20;;;5.50;99.90;;;;;;479901;247;27836;-71
2021/04/22 06:15:49;;;;;;;16.23;7.50;;;5.60;99.90;;;;;;479883;247;27466;-71
2021/04/22 06:17:50;;;;;;;19.50;7.87;;;5.60;99.90;;;;;;479907;247;27363;-71
2021/04/22 06:19:51;;;;;;;15.90;8.88;;;5.60;99.90;;;;;;479842;247;27712;-72
2021/04/22 06:21:52;;;;;;;14.67;8.23;;;5.60;99.90;;;;;;479873;247;28001;-71
2021/04/22 06:23:54;;;;;;;13.87;8.40;;;5.70;99.90;;;;;;479890;247;27884;-71
2021/04/22 06:25:55;;;;;;;21.77;8.97;;;5.80;99.90;;;;;;479884;247;28559;-71
2021/04/22 06:27:56;;;;;;;18.67;8.80;;;5.70;99.90;;;;;;479870;247;28266;-71
2021/04/22 06:29:57;;;;;;;22.13;9.17;;;5.70;99.90;;;;;;479898;247;27841;-71
2021/04/22 06:31:59;;;;;;;19.98;9.32;;;5.70;99.90;;;;;;479825;247;27795;-73
2021/04/22 06:34:00;;;;;;;17.80;9.80;;;5.70;99.90;;;;;;479854;247;27372;-72
2021/04/22 06:36:01;;;;;;;15.05;9.38;;;5.90;99.90;;;;;;479747;247;27813;-72
2021/04/22 06:38:02;;;;;;;16.43;9.90;;;5.70;99.90;;;;;;479931;247;27390;-71
2021/04/22 06:40:04;;;;;;;24.58;10.00;;;5.80;99.90;;;;;;479852;247;29317;-71
2021/04/22 06:42:05;;;;;;;15.02;8.50;;;5.70;99.90;;;;;;479808;247;27422;-73
2021/04/22 06:44:06;;;;;;;15.93;8.70;;;5.80;99.90;;;;;;479861;247;27427;-71
2021/04/22 06:46:07;;;;;;;13.55;8.77;;;6.00;99.90;;;;;;479759;247;28055;-72
2021/04/22 06:48:09;;;;;;;27.90;9.40;;;6.10;99.90;;;;;;479787;247;27375;-71
2021/04/22 06:50:10;;;;;;;13.53;8.40;;;6.00;99.90;;;;;;479862;247;28054;-71
2021/04/22 06:52:11;;;;;;;18.83;8.50;;;5.80;99.90;;;;;;479855;247;29314;-75
2021/04/22 06:54:12;;;;;;;14.30;7.73;;;6.00;99.90;;;;;;479901;247;28344;-71
2021/04/22 06:56:14;;;;;;;24.83;8.77;;;6.00;99.90;;;;;;479820;247;29209;-71
2021/04/22 06:58:15;;;;;;;23.50;7.87;;;6.00;99.90;;;;;;479671;247;27934;-72
2021/04/22 07:00:16;;;;;;;18.77;8.10;;;6.00;99.90;;;;;;479351;247;27924;-71
2021/04/22 07:02:17;;;;;;;14.33;7.13;;;6.00;99.90;;;;;;479811;247;28117;-72
2021/04/22 07:04:19;;;;;;;12.37;6.70;;;6.00;99.90;;;;;;479694;247;27927;-70
2021/04/22 07:06:20;;;;;;;15.27;7.70;;;6.00;99.90;;;;;;479785;247;27952;-71
2021/04/22 07:08:21;;;;;;;22.03;7.20;;;5.90;99.90;;;;;;479878;247;28383;-71
2021/04/22 07:10:22;;;;;;;15.77;7.10;;;5.80;99.90;;;;;;479873;247;28364;-71
2021/04/22 07:12:24;;;;;;;17.20;7.07;;;5.90;99.90;;;;;;479894;247;28101;-72
2021/04/22 07:14:25;;;;;;;21.10;7.47;;;6.10;99.90;;;;;;479884;247;27839;-71
2021/04/22 07:16:26;;;;;;;9.00;5.80;;;6.40;99.90;;;;;;479889;247;27845;-71
2021/04/22 07:18:27;;;;;;;13.30;6.17;;;6.40;99.90;;;;;;479947;247;27909;-71
2021/04/22 07:20:29;;;;;;;14.33;6.47;;;6.50;99.90;;;;;;479952;247;27848;-71
2021/04/22 07:22:30;;;;;;;18.90;7.23;;;6.30;99.90;;;;;;479942;247;27640;-73
2021/04/22 07:24:31;;;;;;;15.70;6.63;;;6.10;99.90;;;;;;479974;247;27607;-71
2021/04/22 07:26:33;;;;;;;14.80;7.07;;;6.00;99.90;;;;;;479945;247;27827;-72
2021/04/22 07:28:34;;;;;;;14.73;6.50;;;6.00;99.90;;;;;;479871;247;28787;-71
2021/04/22 07:30:36;;;;;;;12.57;5.60;;;5.80;99.90;;;;;;479878;247;27944;-71
2021/04/22 07:32:36;;;;;;;16.60;6.20;;;6.10;99.90;;;;;;479835;247;27925;-73
2021/04/22 07:34:38;;;;;;;12.57;6.13;;;6.20;99.90;;;;;;479951;247;27927;-71
2021/04/22 07:36:39;;;;;;;13.27;6.33;;;6.20;99.90;;;;;;479884;247;28351;-72
2021/04/22 07:38:40;;;;;;;12.88;6.32;;;6.00;99.90;;;;;;479879;247;28369;-71
2021/04/22 07:40:41;;;;;;;11.10;5.77;;;6.10;99.90;;;;;;479872;247;27408;-72
2021/04/22 07:42:43;;;;;;;12.40;6.03;;;6.30;99.90;;;;;;479830;247;27955;-71
2021/04/22 07:44:47;;;;;;;13.93;5.53;;;6.20;99.90;;;;;;479870;247;27764;-71
2021/04/22 07:46:45;;;;;;;12.47;5.40;;;6.20;99.90;;;;;;479464;247;27528;-72
2021/04/22 07:48:46;;;;;;;11.70;5.60;;;6.20;99.90;;;;;;479855;248;27712;-71
2021/04/22 07:50:48;;;;;;;13.40;5.57;;;6.20;99.90;;;;;;479918;247;28164;-71
2021/04/22 07:52:49;;;;;;;10.67;5.23;;;6.20;99.90;;;;;;479962;247;27904;-71
2021/04/22 07:54:50;;;;;;;7.43;5.67;;;6.40;99.90;;;;;;479947;247;28384;-71
2021/04/22 07:56:51;;;;;;;13.83;5.80;;;6.60;99.90;;;;;;479943;247;28422;-73
2021/04/22 07:58:53;;;;;;;12.77;5.37;;;6.80;99.90;;;;;;479940;247;28471;-72
2021/04/22 08:00:54;;;;;;;12.60;5.23;;;6.80;99.90;;;;;;479900;247;28415;-71
2021/04/22 08:02:55;;;;;;;9.00;4.20;;;6.80;99.90;;;;;;479847;247;27983;-71
2021/04/22 08:04:56;;;;;;;11.67;5.47;;;7.00;99.90;;;;;;479852;247;27995;-71
2021/04/22 08:06:58;;;;;;;24.53;5.20;;;6.80;99.90;;;;;;479890;247;27989;-72
2021/04/22 08:08:59;;;;;;;15.27;5.10;;;6.40;99.90;;;;;;479965;247;27698;-72
2021/04/22 08:11:01;;;;;;;14.90;4.77;;;6.70;99.90;;;;;;479957;247;27976;-72
2021/04/22 08:13:03;;;;;;;8.90;4.40;;;7.00;99.90;;;;;;479917;247;27853;-71
2021/04/22 08:15:03;;;;;;;8.40;5.30;;;7.20;99.90;;;;;;479815;247;27880;-71
2021/04/22 08:17:04;;;;;;;9.50;5.67;;;7.10;99.90;;;;;;479913;247;27983;-73
2021/04/22 08:19:06;;;;;;;10.40;4.80;;;6.90;99.90;;;;;;479948;246;27736;-72
2021/04/22 08:21:06;;;;;;;7.97;4.67;;;6.80;99.90;;;;;;479886;247;27506;-72
2021/04/22 08:23:08;;;;;;;10.07;4.60;;;7.10;99.90;;;;;;479905;247;27911;-71
2021/04/22 08:25:09;;;;;;;6.93;4.33;;;7.40;99.90;;;;;;479907;247;28429;-71
2021/04/22 08:27:10;;;;;;;11.37;5.97;;;7.30;99.90;;;;;;479926;247;28492;-74
2021/04/22 08:29:11;;;;;;;12.10;5.77;;;7.10;99.90;;;;;;479914;247;27853;-71
2021/04/22 08:31:32;;;;;;;13.93;5.50;;;7.30;99.90;;;;;;479900;247;27770;-72
2021/04/22 08:33:17;;;;;;;10.70;4.70;;;7.30;99.90;;;;;;480739;244;27530;-71
2021/04/22 08:35:18;;;;;;;8.00;4.57;;;7.40;99.90;;;;;;479947;247;27743;-71
2021/04/22 08:37:19;;;;;;;15.80;5.97;;;7.30;99.90;;;;;;479934;247;28030;-72
2021/04/22 08:39:20;;;;;;;11.53;5.30;;;7.40;99.90;;;;;;479947;247;27916;-72
2021/04/22 08:41:22;;;;;;;11.10;5.00;;;7.50;99.90;;;;;;479941;247;28417;-72
2021/04/22 08:43:23;;;;;;;10.40;4.87;;;7.40;99.90;;;;;;479938;247;28212;-72
2021/04/22 08:45:24;;;;;;;12.10;5.00;;;7.50;99.90;;;;;;479961;247;28137;-71
2021/04/22 08:47:25;;;;;;;10.50;5.30;;;7.60;99.90;;;;;;479934;247;27943;-72
2021/04/22 08:49:27;;;;;;;12.70;4.63;;;7.60;99.90;;;;;;479898;247;27971;-71
2021/04/22 08:51:28;;;;;;;8.77;4.83;;;7.60;99.90;;;;;;479860;247;27837;-73
2021/04/22 08:53:30;;;;;;;11.70;4.83;;;7.70;99.90;;;;;;479868;247;27630;-71
2021/04/22 08:55:30;;;;;;;10.63;4.67;;;7.80;99.90;;;;;;479844;247;27901;-72
2021/04/22 08:57:32;;;;;;;9.73;4.50;;;7.60;99.90;;;;;;479477;247;28275;-72
2021/04/22 08:59:33;;;;;;;14.27;4.70;;;7.40;99.90;;;;;;479888;247;27645;-71
2021/04/22 09:01:34;;;;;;;9.53;4.60;;;7.60;99.90;;;;;;479869;247;27795;-72
2021/04/22 09:03:36;;;;;;;11.90;4.90;;;7.70;99.90;;;;;;479893;247;27790;-72
2021/04/22 09:05:37;;;;;;;14.20;4.67;;;7.80;99.90;;;;;;479933;247;27930;-72
2021/04/22 09:07:38;;;;;;;7.37;4.00;;;7.80;99.90;;;;;;479951;247;28358;-72
2021/04/22 09:09:39;;;;;;;9.77;4.23;;;8.00;99.90;;;;;;479890;247;28074;-72
2021/04/22 09:11:40;;;;;;;10.67;4.33;;;8.00;99.90;;;;;;479968;247;28436;-72
2021/04/22 09:13:42;;;;;;;15.10;4.97;;;8.10;99.90;;;;;;479961;247;28225;-73
2021/04/22 09:15:43;;;;;;;10.13;3.80;;;7.90;99.90;;;;;;479929;247;27625;-71
2021/04/22 09:17:44;;;;;;;9.17;4.00;;;7.90;99.90;;;;;;479888;247;27953;-72
2021/04/22 09:19:45;;;;;;;15.37;4.93;;;8.00;99.90;;;;;;479898;247;27981;-71
2021/04/22 09:21:47;;;;;;;9.07;3.97;;;7.70;99.90;;;;;;479978;247;27820;-72
2021/04/22 09:23:48;;;;;;;9.93;4.70;;;8.00;99.90;;;;;;479874;247;27525;-73
2021/04/22 09:25:49;;;;;;;9.17;3.77;;;8.20;99.90;;;;;;479901;247;27833;-71
2021/04/22 09:27:50;;;;;;;15.50;5.10;;;8.30;99.90;;;;;;479869;247;27845;-72
2021/04/22 09:29:53;;;;;;;15.00;4.70;;;8.30;99.90;;;;;;479858;247;27584;-72
2021/04/22 09:31:53;;;;;;;13.20;4.43;;;8.00;99.90;;;;;;479903;247;27590;-72
2021/04/22 09:33:54;;;;;;;11.07;4.30;;;8.10;99.90;;;;;;479906;247;27755;-71
2021/04/22 09:35:55;;;;;;;12.10;4.60;;;8.20;99.90;;;;;;480004;247;27966;-71
2021/04/22 09:37:57;;;;;;;10.50;4.20;;;8.20;99.90;;;;;;479977;247;28355;-72
2021/04/22 09:39:58;;;;;;;8.87;3.70;;;8.10;99.90;;;;;;479903;247;28364;-72
2021/04/22 09:41:59;;;;;;;12.97;4.37;;;8.40;99.90;;;;;;479897;247;28082;-72
2021/04/22 09:44:00;;;;;;;13.03;4.20;;;8.20;99.90;;;;;;479964;247;27839;-72
2021/04/22 09:46:02;;;;;;;9.90;4.13;;;8.30;99.90;;;;;;479991;247;27946;-72
2021/04/22 09:48:03;;;;;;;8.90;3.90;;;8.40;99.90;;;;;;479896;247;27735;-72
2021/04/22 09:50:07;;;;;;;8.77;3.60;;;8.80;99.90;;;;;;479893;247;27844;-72
2021/04/22 09:52:05;;;;;;;6.50;3.20;;;8.90;99.90;;;;;;479880;247;27806;-72
2021/04/22 09:54:07;;;;;;;15.03;3.90;;;8.80;99.90;;;;;;479969;247;27772;-73
2021/04/22 09:56:08;;;;;;;6.97;3.60;;;8.90;99.90;;;;;;479968;247;27543;-72
2021/04/22 09:58:09;;;;;;;9.23;3.30;;;9.00;99.90;;;;;;479864;247;27761;-72
2021/04/22 10:00:13;;;;;;;8.40;3.70;;;9.10;99.90;;;;;;479883;247;27998;-72
2021/04/22 10:02:12;;;;;;;11.90;3.57;;;9.00;99.90;;;;;;479857;247;27531;-72
2021/04/22 10:04:15;;;;;;;11.00;4.10;;;9.00;99.90;;;;;;479856;247;27638;-71
2021/04/22 10:06:14;;;;;;;12.07;3.87;;;8.90;99.90;;;;;;479988;247;28343;-72
2021/04/22 10:08:15;;;;;;;11.90;3.83;;;9.00;99.90;;;;;;479874;247;28230;-71
2021/04/22 10:10:17;;;;;;;11.50;4.03;;;8.90;99.90;;;;;;479970;247;28297;-72
2021/04/22 10:12:18;;;;;;;10.53;4.47;;;9.00;99.90;;;;;;479955;247;28240;-72
2021/04/22 10:14:19;;;;;;;6.87;4.10;;;8.90;99.90;;;;;;479961;247;27836;-71
2021/04/22 10:16:20;;;;;;;9.77;4.30;;;8.80;99.90;;;;;;479865;247;27379;-72
2021/04/22 10:18:22;;;;;;;8.17;4.10;;;9.00;99.90;;;;;;479882;247;27713;-73
2021/04/22 10:20:23;;;;;;;12.93;4.47;;;9.20;99.90;;;;;;479888;247;27950;-71
2021/04/22 10:22:24;;;;;;;7.50;3.73;;;9.30;99.90;;;;;;479905;247;27892;-72
2021/04/22 10:24:26;;;;;;;7.20;3.70;;;9.40;99.90;;;;;;479888;247;27837;-72
2021/04/22 10:26:27;;;;;;;7.07;3.50;;;9.60;99.40;;;;;;479844;247;27747;-72
2021/04/22 10:28:28;;;;;;;7.10;3.60;;;9.50;99.80;;;;;;479871;247;27801;-72